createdAt,value
2022-12-28T00:01:47.055Z,0.82
2022-12-28T00:04:01.122Z,0.80
2022-12-28T00:06:13.622Z,0.79
2022-12-28T00:08:25.620Z,0.78
2022-12-28T00:11:07.912Z,0.77
2022-12-28T00:13:09.455Z,0.74
2022-12-28T00:15:21.366Z,0.72
2022-12-28T00:17:33.260Z,0.70
2022-12-28T00:19:44.945Z,0.69
2022-12-28T00:21:56.429Z,0.67
2022-12-28T00:24:09.243Z,0.66
2022-12-28T00:26:21.671Z,0.64
2022-12-28T00:28:33.771Z,0.64
2022-12-28T00:30:46.265Z,0.65
2022-12-28T00:32:58.762Z,0.66
2022-12-28T00:35:10.750Z,0.65
2022-12-28T00:37:22.547Z,0.64
2022-12-28T00:39:34.853Z,0.63
2022-12-28T00:41:47.873Z,0.63
2022-12-28T00:43:59.959Z,0.62
2022-12-28T00:46:12.288Z,0.62
2022-12-28T00:48:24.456Z,0.63
2022-12-28T00:50:36.153Z,0.63
2022-12-28T00:52:47.736Z,0.62
2022-12-28T00:54:59.421Z,0.61
2022-12-28T00:57:11.311Z,0.62
2022-12-28T00:59:23.307Z,0.61
2022-12-28T01:01:35.675Z,0.61
2022-12-28T01:03:48.628Z,0.63
2022-12-28T01:06:05.950Z,0.63
2022-12-28T01:08:17.537Z,0.64
2022-12-28T01:10:29.732Z,0.66
2022-12-28T01:12:41.835Z,0.67
2022-12-28T01:14:53.623Z,0.68
2022-12-28T01:17:05.514Z,0.69
2022-12-28T01:19:21.815Z,0.70
2022-12-28T01:21:35.569Z,0.69
2022-12-28T01:23:49.594Z,0.70
2022-12-28T01:26:02.917Z,0.70
2022-12-28T01:28:14.961Z,0.71
2022-12-28T01:30:26.901Z,0.72
2022-12-28T01:32:38.895Z,0.73
2022-12-28T01:34:52.017Z,0.74
2022-12-28T01:37:04.523Z,0.74
2022-12-28T01:39:16.518Z,0.74
2022-12-28T01:41:30.058Z,0.75
2022-12-28T01:43:45.686Z,0.76
2022-12-28T01:45:57.759Z,0.75
2022-12-28T01:48:22.005Z,0.73
2022-12-28T01:50:33.805Z,0.72
2022-12-28T01:52:57.668Z,0.71
2022-12-28T01:55:14.581Z,0.70
2022-12-28T01:57:30.263Z,0.71
2022-12-28T01:59:46.536Z,0.71
2022-12-28T02:01:58.914Z,0.71
2022-12-28T02:04:11.681Z,0.71
2022-12-28T02:06:23.774Z,0.72
2022-12-28T02:08:46.718Z,0.71
2022-12-28T02:10:59.023Z,0.72
2022-12-28T02:13:11.371Z,0.72
2022-12-28T02:15:23.728Z,0.73
2022-12-28T02:17:35.723Z,0.73
2022-12-28T02:19:49.560Z,0.72
2022-12-28T02:22:34.220Z,0.73
2022-12-28T02:25:11.673Z,0.74
2022-12-28T02:28:08.661Z,0.75
2022-12-28T02:30:23.011Z,0.76
2022-12-28T02:33:04.806Z,0.76
2022-12-28T02:35:23.448Z,0.76
2022-12-28T02:37:46.623Z,0.77
2022-12-28T02:40:27.583Z,0.78
2022-12-28T02:42:41.662Z,0.81
2022-12-28T02:45:12.262Z,0.82
2022-12-28T02:47:43.100Z,0.84
2022-12-28T02:50:07.293Z,0.86
2022-12-28T02:52:41.900Z,0.89
2022-12-28T02:55:35.275Z,0.91
2022-12-28T02:58:38.460Z,0.94
2022-12-28T03:01:06.203Z,0.96
2022-12-28T03:03:36.960Z,0.97
2022-12-28T03:06:14.656Z,0.98
2022-12-28T03:08:43.956Z,1.00
2022-12-28T03:11:05.102Z,1.01
2022-12-28T03:13:51.057Z,1.02
2022-12-28T03:16:08.374Z,1.01
2022-12-28T03:18:40.850Z,1.01
2022-12-28T03:21:15.682Z,0.99
2022-12-28T03:23:47.645Z,0.97
2022-12-28T03:26:21.861Z,0.96
2022-12-28T03:28:56.385Z,0.95
2022-12-28T03:31:14.849Z,0.92
2022-12-28T03:33:31.943Z,0.91
2022-12-28T03:35:59.451Z,0.90
2022-12-28T03:38:27.305Z,0.89
2022-12-28T03:40:50.220Z,0.86
2022-12-28T03:43:32.115Z,0.85
2022-12-28T03:46:08.064Z,0.81
2022-12-28T03:48:20.064Z,0.79
2022-12-28T03:50:38.106Z,0.78
2022-12-28T03:52:52.439Z,0.77
2022-12-28T03:55:05.212Z,0.76
2022-12-28T03:57:18.491Z,0.76
2022-12-28T03:59:30.949Z,0.76
2022-12-28T04:01:45.147Z,0.76
2022-12-28T04:03:57.035Z,0.76
2022-12-28T04:06:13.459Z,0.77
2022-12-28T04:08:26.555Z,0.78
2022-12-28T04:10:39.169Z,0.80
2022-12-28T04:12:55.052Z,0.79
2022-12-28T04:15:20.458Z,0.81
2022-12-28T04:17:32.657Z,0.82
2022-12-28T04:19:44.554Z,0.83
2022-12-28T04:21:56.752Z,0.86
2022-12-28T04:24:08.540Z,0.87
2022-12-28T04:26:21.972Z,0.88
2022-12-28T04:28:38.163Z,0.90
2022-12-28T04:31:17.942Z,0.93
2022-12-28T04:33:37.487Z,0.96
2022-12-28T04:35:49.987Z,0.97
2022-12-28T04:38:02.292Z,1.00
2022-12-28T04:40:14.390Z,1.02
2022-12-28T04:42:26.582Z,1.05
2022-12-28T04:44:38.578Z,1.08
2022-12-28T04:46:50.507Z,1.09
2022-12-28T04:49:02.880Z,1.13
2022-12-28T04:51:14.561Z,1.14
2022-12-28T04:53:26.460Z,1.17
2022-12-28T04:55:38.202Z,1.19
2022-12-28T04:57:50.240Z,1.21
2022-12-28T05:00:02.046Z,1.23
2022-12-28T05:02:14.341Z,1.25
2022-12-28T05:04:26.223Z,1.27
2022-12-28T05:06:38.319Z,1.29
2022-12-28T05:08:50.935Z,1.31
2022-12-28T05:11:04.661Z,1.32
2022-12-28T05:13:16.557Z,1.34
2022-12-28T05:15:28.142Z,1.35
2022-12-28T05:17:40.147Z,1.37
2022-12-28T05:19:52.234Z,1.38
2022-12-28T05:22:04.245Z,1.40
2022-12-28T05:24:16.223Z,1.41
2022-12-28T05:26:29.822Z,1.42
2022-12-28T05:28:42.587Z,1.43
2022-12-28T05:30:59.952Z,1.43
2022-12-28T05:33:11.982Z,1.44
2022-12-28T05:35:25.256Z,1.44
2022-12-28T05:37:37.305Z,1.45
2022-12-28T05:39:49.304Z,1.47
2022-12-28T05:42:02.841Z,1.48
2022-12-28T05:44:14.418Z,1.50
2022-12-28T05:46:29.711Z,1.51
2022-12-28T05:48:43.113Z,1.52
2022-12-28T05:50:56.926Z,1.53
2022-12-28T05:53:08.641Z,1.53
2022-12-28T05:55:20.348Z,1.53
2022-12-28T05:57:32.223Z,1.53
2022-12-28T05:59:44.523Z,1.53
2022-12-28T06:01:56.582Z,1.53
2022-12-28T06:04:14.606Z,1.54
2022-12-28T06:06:26.957Z,1.54
2022-12-28T06:08:40.181Z,1.54
2022-12-28T06:10:51.976Z,1.55
2022-12-28T06:13:03.966Z,1.55
2022-12-28T06:15:15.858Z,1.55
2022-12-28T06:17:28.688Z,1.55
2022-12-28T06:19:40.462Z,1.54
2022-12-28T06:21:52.355Z,1.54
2022-12-28T06:24:05.487Z,1.53
2022-12-28T06:26:20.444Z,1.53
2022-12-28T06:28:32.024Z,1.52
2022-12-28T06:30:48.947Z,1.52
2022-12-28T06:33:04.309Z,1.53
2022-12-28T06:35:16.511Z,1.54
2022-12-28T06:37:28.297Z,1.55
2022-12-28T06:39:40.399Z,1.57
2022-12-28T06:41:52.498Z,1.63
2022-12-28T06:44:09.405Z,1.69
2022-12-28T06:46:23.576Z,1.73
2022-12-28T06:48:35.952Z,1.75
2022-12-28T06:51:15.730Z,1.76
2022-12-28T06:53:29.640Z,1.78
2022-12-28T06:55:41.227Z,1.79
2022-12-28T06:57:53.844Z,1.81
2022-12-28T07:00:07.135Z,1.83
2022-12-28T07:02:19.965Z,1.83
2022-12-28T07:04:31.964Z,1.84
2022-12-28T07:06:44.777Z,1.85
2022-12-28T07:09:02.094Z,1.87
2022-12-28T07:11:18.290Z,1.89
2022-12-28T07:13:30.687Z,1.90
2022-12-28T07:15:42.592Z,1.91
2022-12-28T07:17:54.792Z,1.93
2022-12-28T07:20:07.191Z,1.94
2022-12-28T07:22:19.390Z,1.95
2022-12-28T07:24:31.487Z,1.97
2022-12-28T07:26:43.378Z,1.99
2022-12-28T07:28:57.984Z,2.00
2022-12-28T07:31:33.119Z,2.01
2022-12-28T07:33:49.980Z,2.02
2022-12-28T07:36:01.826Z,2.03
2022-12-28T07:38:19.445Z,2.05
2022-12-28T07:40:33.038Z,2.08
2022-12-28T07:42:44.822Z,2.11
2022-12-28T07:44:56.816Z,2.13
2022-12-28T07:47:08.709Z,2.15
2022-12-28T07:49:20.689Z,2.17
2022-12-28T07:51:35.467Z,2.18
2022-12-28T07:53:49.414Z,2.19
2022-12-28T07:56:00.989Z,2.21
2022-12-28T07:58:14.415Z,2.22
2022-12-28T08:00:26.837Z,2.25
2022-12-28T08:02:39.111Z,2.25
2022-12-28T08:04:52.310Z,2.26
2022-12-28T08:07:04.192Z,2.27
2022-12-28T08:09:16.237Z,2.27
2022-12-28T08:11:30.286Z,2.28
2022-12-28T08:13:44.216Z,2.29
2022-12-28T08:15:56.233Z,2.31
2022-12-28T08:18:08.309Z,2.33
2022-12-28T08:20:20.711Z,2.34
2022-12-28T08:22:34.038Z,2.37
2022-12-28T08:24:45.827Z,2.38
2022-12-28T08:26:58.025Z,2.41
2022-12-28T08:29:14.124Z,2.44
2022-12-28T08:31:34.045Z,2.45
2022-12-28T08:33:46.509Z,2.47
2022-12-28T08:35:58.625Z,2.50
2022-12-28T08:38:10.333Z,2.53
2022-12-28T08:40:27.707Z,2.57
2022-12-28T08:42:39.399Z,2.60
2022-12-28T08:44:51.727Z,2.64
2022-12-28T08:47:03.872Z,2.68
2022-12-28T08:49:16.002Z,2.73
2022-12-28T08:51:30.557Z,2.77
2022-12-28T08:53:43.264Z,2.83
2022-12-28T08:55:58.052Z,2.86
2022-12-28T08:58:13.191Z,2.89
2022-12-28T09:00:24.850Z,2.90
2022-12-28T09:02:37.005Z,2.90
2022-12-28T09:04:49.072Z,2.92
2022-12-28T09:07:00.963Z,2.94
2022-12-28T09:09:15.214Z,2.95
2022-12-28T09:11:27.717Z,2.96
2022-12-28T09:13:40.396Z,2.98
2022-12-28T09:16:04.278Z,3.00
2022-12-28T09:18:16.093Z,3.01
2022-12-28T09:20:28.293Z,3.06
2022-12-28T09:22:42.735Z,3.09
2022-12-28T09:24:54.339Z,3.10
2022-12-28T09:27:06.325Z,3.13
2022-12-28T09:29:18.150Z,3.16
2022-12-28T09:31:32.219Z,3.19
2022-12-28T09:36:39.102Z,3.29
2022-12-28T09:38:51.737Z,3.34
2022-12-28T09:41:21.985Z,3.41
2022-12-28T09:43:33.777Z,3.51
2022-12-28T09:45:46.492Z,3.58
2022-12-28T09:48:04.519Z,3.64
2022-12-28T09:50:16.722Z,3.70
2022-12-28T09:52:56.166Z,3.72
2022-12-28T09:55:14.799Z,3.77
2022-12-28T09:57:33.363Z,3.79
2022-12-28T09:59:48.018Z,3.81
2022-12-28T10:02:04.358Z,3.84
2022-12-28T10:04:16.616Z,3.86
2022-12-28T10:06:32.950Z,3.90
2022-12-28T10:08:49.409Z,3.94
2022-12-28T10:11:05.288Z,3.97
2022-12-28T10:15:52.869Z,4.07
2022-12-28T10:18:05.753Z,4.11
2022-12-28T10:20:20.615Z,4.15
2022-12-28T10:22:40.622Z,4.17
2022-12-28T10:24:54.950Z,4.18
2022-12-28T10:27:11.554Z,4.21
2022-12-28T10:29:24.795Z,4.24
2022-12-28T10:31:39.793Z,4.28
2022-12-28T10:33:54.505Z,4.30
2022-12-28T10:36:15.006Z,4.31
2022-12-28T10:38:31.910Z,4.32
2022-12-28T10:40:44.407Z,4.34
2022-12-28T10:42:58.147Z,4.38
2022-12-28T10:45:19.375Z,4.42
2022-12-28T10:47:36.167Z,4.46
2022-12-28T10:52:26.460Z,4.57
2022-12-28T10:54:38.323Z,4.60
2022-12-28T10:56:50.369Z,4.63
2022-12-28T10:59:11.157Z,4.65
2022-12-28T11:01:30.475Z,4.69
2022-12-28T11:04:23.276Z,4.72
2022-12-28T11:06:50.657Z,4.78
2022-12-28T11:09:22.572Z,4.83
2022-12-28T11:11:34.587Z,4.87
2022-12-28T11:13:52.316Z,4.92
2022-12-28T11:16:08.162Z,4.98
2022-12-28T11:18:21.424Z,5.02
2022-12-28T11:20:42.737Z,5.05
2022-12-28T11:22:55.346Z,5.08
2022-12-28T11:25:08.066Z,5.11
2022-12-28T11:27:22.811Z,5.20
2022-12-28T11:29:34.813Z,5.33
2022-12-28T11:32:00.284Z,5.41
2022-12-28T11:34:22.456Z,5.45
2022-12-28T11:36:39.893Z,5.49
2022-12-28T11:38:55.184Z,5.50
2022-12-28T11:41:11.242Z,5.51
2022-12-28T11:43:29.454Z,5.54
2022-12-28T11:45:51.597Z,5.60
2022-12-28T11:48:41.835Z,5.62
2022-12-28T11:50:53.697Z,5.63
2022-12-28T11:53:32.012Z,5.65
2022-12-28T11:55:51.275Z,5.67
2022-12-28T11:58:30.997Z,5.67
2022-12-28T12:00:49.979Z,5.66
2022-12-28T12:03:02.041Z,5.66
2022-12-28T12:05:39.666Z,5.66
2022-12-28T12:07:52.073Z,5.66
2022-12-28T12:10:26.949Z,5.67
2022-12-28T12:12:48.743Z,5.68
2022-12-28T12:15:12.509Z,5.68
2022-12-28T12:18:00.947Z,5.69
2022-12-28T12:20:33.223Z,5.70
2022-12-28T12:22:53.096Z,5.69
2022-12-28T12:25:34.685Z,5.71
2022-12-28T12:28:10.539Z,5.72
2022-12-28T12:30:23.772Z,5.73
2022-12-28T12:32:49.071Z,5.75
2022-12-28T12:35:06.605Z,5.78
2022-12-28T12:37:37.228Z,5.80
2022-12-28T12:40:01.557Z,5.83
2022-12-28T12:42:35.828Z,5.87
2022-12-28T12:44:58.473Z,5.90
2022-12-28T12:47:13.235Z,5.94
2022-12-28T12:50:03.319Z,5.96
2022-12-28T12:52:43.029Z,5.97
2022-12-28T12:55:22.098Z,6.00
2022-12-28T12:58:03.372Z,6.01
2022-12-28T13:00:21.000Z,6.04
2022-12-28T13:02:51.849Z,6.19
2022-12-28T13:05:05.265Z,6.71
2022-12-28T13:07:22.631Z,6.97
2022-12-28T13:09:35.203Z,6.97
2022-12-28T13:11:47.399Z,6.81
2022-12-28T13:13:59.914Z,6.68
2022-12-28T13:16:16.895Z,6.58
2022-12-28T13:18:45.220Z,6.50
2022-12-28T13:21:01.174Z,6.44
2022-12-28T13:23:16.861Z,6.40
2022-12-28T13:25:33.981Z,6.37
2022-12-28T13:27:45.971Z,6.35
2022-12-28T13:29:57.766Z,6.35
2022-12-28T13:32:36.027Z,6.34
2022-12-28T13:34:51.031Z,6.32
2022-12-28T13:37:14.499Z,6.32
2022-12-28T13:39:35.340Z,6.32
2022-12-28T13:41:55.186Z,6.33
2022-12-28T13:44:23.044Z,6.32
2022-12-28T13:46:38.027Z,6.33
2022-12-28T13:48:52.639Z,6.35
2022-12-28T13:51:08.663Z,6.36
2022-12-28T13:53:25.268Z,6.36
2022-12-28T13:55:51.692Z,6.36
2022-12-28T13:58:16.388Z,6.36
2022-12-28T14:00:30.428Z,6.35
2022-12-28T14:02:43.448Z,6.35
2022-12-28T14:04:56.279Z,6.35
2022-12-28T14:07:17.166Z,6.34
2022-12-28T14:09:29.872Z,6.33
2022-12-28T14:11:43.510Z,6.33
2022-12-28T14:13:57.347Z,6.32
2022-12-28T14:16:09.935Z,6.31
2022-12-28T14:18:22.260Z,6.30
2022-12-28T14:20:47.155Z,6.29
2022-12-28T14:23:24.452Z,6.28
2022-12-28T14:25:42.166Z,6.28
2022-12-28T14:28:03.758Z,6.29
2022-12-28T14:30:28.742Z,6.29
2022-12-28T14:32:43.228Z,6.29
2022-12-28T14:35:00.563Z,6.29
2022-12-28T14:37:37.559Z,6.30
2022-12-28T14:39:49.745Z,6.30
2022-12-28T14:42:03.970Z,6.29
2022-12-28T14:44:25.407Z,6.31
2022-12-28T14:46:38.867Z,6.31
2022-12-28T14:48:50.828Z,6.32
2022-12-28T14:51:25.865Z,6.33
2022-12-28T14:53:37.861Z,6.33
2022-12-28T14:55:53.174Z,6.34
2022-12-28T14:58:17.826Z,6.35
2022-12-28T15:00:35.758Z,6.36
2022-12-28T15:02:48.697Z,6.37
2022-12-28T15:05:02.427Z,6.38
2022-12-28T15:07:13.889Z,6.38
2022-12-28T15:09:25.781Z,6.38
2022-12-28T15:11:38.090Z,6.39
2022-12-28T15:13:51.358Z,6.40
2022-12-28T15:16:04.454Z,6.40
2022-12-28T15:18:17.667Z,6.42
2022-12-28T15:20:29.700Z,6.43
2022-12-28T15:22:42.586Z,6.44
2022-12-28T15:24:54.663Z,6.45
2022-12-28T15:27:32.482Z,6.47
2022-12-28T15:30:16.265Z,6.48
2022-12-28T15:32:33.961Z,6.49
2022-12-28T15:34:50.066Z,6.49
2022-12-28T15:37:05.296Z,6.49
2022-12-28T15:39:18.966Z,6.48
2022-12-28T15:41:49.440Z,6.49
2022-12-28T15:44:06.141Z,6.48
2022-12-28T15:46:22.386Z,6.47
2022-12-28T15:49:05.460Z,6.47
2022-12-28T15:51:34.929Z,6.47
2022-12-28T15:53:50.157Z,6.46
2022-12-28T15:56:13.047Z,6.45
2022-12-28T15:58:34.519Z,6.44
2022-12-28T16:00:47.828Z,6.43
2022-12-28T16:03:00.437Z,6.43
2022-12-28T16:05:17.759Z,6.42
2022-12-28T16:07:35.765Z,6.42
2022-12-28T16:10:11.986Z,6.42
2022-12-28T16:12:24.707Z,6.42
2022-12-28T16:14:37.207Z,6.41
2022-12-28T16:16:51.840Z,6.41
2022-12-28T16:19:07.358Z,6.40
2022-12-28T16:21:27.038Z,6.39
2022-12-28T16:23:42.881Z,6.37
2022-12-28T16:25:54.566Z,6.35
2022-12-28T16:28:06.358Z,6.34
2022-12-28T16:30:18.567Z,6.34
2022-12-28T16:32:30.459Z,6.33
2022-12-28T16:34:42.135Z,6.33
2022-12-28T16:36:57.272Z,6.33
2022-12-28T16:39:13.089Z,6.33
2022-12-28T16:41:28.827Z,6.34
2022-12-28T16:43:48.058Z,6.34
2022-12-28T16:46:06.350Z,6.34
2022-12-28T16:48:19.296Z,6.35
2022-12-28T16:50:31.815Z,6.35
2022-12-28T16:52:44.411Z,6.36
2022-12-28T16:54:57.049Z,6.36
2022-12-28T16:57:11.374Z,6.37
2022-12-28T16:59:28.196Z,6.38
2022-12-28T17:01:40.243Z,6.39
2022-12-28T17:03:52.498Z,6.41
2022-12-28T17:06:05.083Z,6.42
2022-12-28T17:08:17.796Z,6.43
2022-12-28T17:10:30.611Z,6.45
2022-12-28T17:12:42.193Z,6.46
2022-12-28T17:14:53.783Z,6.47
2022-12-28T17:17:07.001Z,6.47
2022-12-28T17:19:19.408Z,6.47
2022-12-28T17:21:32.845Z,6.46
2022-12-28T17:23:45.343Z,6.46
2022-12-28T17:25:58.157Z,6.45
2022-12-28T17:28:13.221Z,6.45
2022-12-28T17:30:25.421Z,6.44
2022-12-28T17:32:37.115Z,6.43
2022-12-28T17:34:49.323Z,6.43
2022-12-28T17:37:01.300Z,6.42
2022-12-28T17:39:13.510Z,6.42
2022-12-28T17:41:27.746Z,6.41
2022-12-28T17:43:39.541Z,6.41
2022-12-28T17:45:51.250Z,6.40
2022-12-28T17:48:04.150Z,6.40
2022-12-28T17:50:16.137Z,6.39
2022-12-28T17:52:27.743Z,6.39
2022-12-28T17:54:39.513Z,6.38
2022-12-28T17:56:51.097Z,6.38
2022-12-28T17:59:03.316Z,6.38
2022-12-28T18:01:15.823Z,6.37
2022-12-28T18:03:33.452Z,6.37
2022-12-28T18:05:49.319Z,6.37
2022-12-28T18:08:00.901Z,6.35
2022-12-28T18:10:12.929Z,6.35
2022-12-28T18:12:25.097Z,6.34
2022-12-28T18:14:37.017Z,6.34
2022-12-28T18:16:49.049Z,6.33
2022-12-28T18:19:00.984Z,6.32
2022-12-28T18:21:20.998Z,6.30
2022-12-28T18:23:35.572Z,6.29
2022-12-28T18:25:47.210Z,6.28
2022-12-28T18:27:59.206Z,6.27
2022-12-28T18:30:11.849Z,6.26
2022-12-28T18:32:23.704Z,6.27
2022-12-28T18:34:35.387Z,6.26
2022-12-28T18:36:47.285Z,6.26
2022-12-28T18:38:59.186Z,6.26
2022-12-28T18:41:13.638Z,6.26
2022-12-28T18:43:25.613Z,6.25
2022-12-28T18:45:37.512Z,6.26
2022-12-28T18:47:49.481Z,6.26
2022-12-28T18:50:02.429Z,6.25
2022-12-28T18:52:15.438Z,6.25
2022-12-28T18:54:27.487Z,6.24
2022-12-28T18:56:39.637Z,6.24
2022-12-28T18:58:53.647Z,6.24
2022-12-28T19:03:56.621Z,6.19
2022-12-28T19:06:09.901Z,6.19
2022-12-28T19:08:21.592Z,6.17
2022-12-28T19:10:33.484Z,6.17
2022-12-28T19:12:45.381Z,6.17
2022-12-28T19:14:56.968Z,6.16
2022-12-28T19:17:08.752Z,6.16
2022-12-28T19:19:21.156Z,6.15
2022-12-28T19:21:35.539Z,6.15
2022-12-28T19:23:52.135Z,6.15
2022-12-28T19:26:03.997Z,6.15
2022-12-28T19:28:15.538Z,6.15
2022-12-28T19:30:27.179Z,6.15
2022-12-28T19:32:38.754Z,6.14
2022-12-28T19:34:51.159Z,6.15
2022-12-28T19:37:03.154Z,6.15
2022-12-28T19:39:15.456Z,6.14
2022-12-28T19:41:29.397Z,6.14
2022-12-28T19:43:43.033Z,6.14
2022-12-28T19:46:06.367Z,6.14
2022-12-28T19:48:18.501Z,6.13
2022-12-28T19:50:30.789Z,6.13
2022-12-28T19:52:42.593Z,6.13
2022-12-28T19:54:55.470Z,6.14
2022-12-28T19:57:10.378Z,6.14
2022-12-28T19:59:25.954Z,6.16
2022-12-28T20:01:42.500Z,6.17
2022-12-28T20:03:58.725Z,6.19
2022-12-28T20:06:14.876Z,6.19
2022-12-28T20:08:28.382Z,6.20
2022-12-28T20:10:41.090Z,6.21
2022-12-28T20:12:54.620Z,6.22
2022-12-28T20:15:07.757Z,6.22
2022-12-28T20:17:23.978Z,6.24
2022-12-28T20:19:40.416Z,6.27
2022-12-28T20:21:51.995Z,6.25
2022-12-28T20:24:05.006Z,6.26
2022-12-28T20:26:18.766Z,6.28
2022-12-28T20:28:30.241Z,6.30
2022-12-28T20:30:42.510Z,6.33
2022-12-28T20:32:55.362Z,6.34
2022-12-28T20:35:12.893Z,6.37
2022-12-28T20:37:25.495Z,6.40
2022-12-28T20:39:38.318Z,6.41
2022-12-28T20:42:09.549Z,6.43
2022-12-28T20:44:26.338Z,6.46
2022-12-28T20:46:40.042Z,6.47
2022-12-28T20:48:52.827Z,6.51
2022-12-28T20:51:06.368Z,6.54
2022-12-28T20:53:18.947Z,6.56
2022-12-28T20:55:31.343Z,6.58
2022-12-28T20:57:43.232Z,6.60
2022-12-28T20:59:55.023Z,6.61
2022-12-28T21:02:11.421Z,6.63
2022-12-28T21:04:26.296Z,6.63
2022-12-28T21:06:39.224Z,6.65
2022-12-28T21:08:53.171Z,6.66
2022-12-28T21:11:07.347Z,6.67
2022-12-28T21:13:20.961Z,6.69
2022-12-28T21:15:34.677Z,6.70
2022-12-28T21:17:48.500Z,6.70
2022-12-28T21:20:02.665Z,6.71
2022-12-28T21:22:16.698Z,6.72
2022-12-28T21:24:30.052Z,6.73
2022-12-28T21:26:43.692Z,6.74
2022-12-28T21:28:56.654Z,6.75
2022-12-28T21:31:10.564Z,6.76
2022-12-28T21:33:23.362Z,6.76
2022-12-28T21:35:36.403Z,6.77
2022-12-28T21:37:51.528Z,6.77
2022-12-28T21:40:09.838Z,6.77
2022-12-28T21:42:21.728Z,6.78
2022-12-28T21:44:34.544Z,6.78
2022-12-28T21:46:49.820Z,6.79
2022-12-28T21:49:06.278Z,6.79
2022-12-28T21:51:38.517Z,6.79
2022-12-28T21:53:51.164Z,6.79
2022-12-28T21:56:04.260Z,6.78
2022-12-28T21:58:17.038Z,6.79
2022-12-28T22:03:55.158Z,6.76
2022-12-28T22:06:09.998Z,6.78
2022-12-28T22:08:48.781Z,6.89
2022-12-28T22:11:23.709Z,6.97
2022-12-28T22:13:36.766Z,7.02
2022-12-28T22:15:57.308Z,7.11
2022-12-28T22:20:50.880Z,7.24
2022-12-28T22:23:04.690Z,7.25
2022-12-28T22:25:17.470Z,7.22
2022-12-28T22:27:29.917Z,7.19
2022-12-28T22:29:42.851Z,7.18
2022-12-28T22:31:57.147Z,7.13
2022-12-28T22:34:10.270Z,7.09
2022-12-28T22:36:23.432Z,7.03
2022-12-28T22:38:36.057Z,6.95
2022-12-28T22:41:00.240Z,6.90
2022-12-28T22:43:15.244Z,6.85
2022-12-28T22:45:28.826Z,6.80
2022-12-28T22:47:43.490Z,6.75
2022-12-28T22:49:56.717Z,6.70
2022-12-28T22:52:10.185Z,6.66
2022-12-28T22:54:23.429Z,6.64
2022-12-28T22:56:35.588Z,6.61
2022-12-28T22:58:49.036Z,6.58
2022-12-28T23:01:04.630Z,6.56
2022-12-28T23:03:17.521Z,6.54
2022-12-28T23:05:30.106Z,6.52
2022-12-28T23:07:42.357Z,6.50
2022-12-28T23:09:55.137Z,6.49
2022-12-28T23:12:07.828Z,6.47
2022-12-28T23:14:43.221Z,6.46
2022-12-28T23:16:57.066Z,6.45
2022-12-28T23:19:32.456Z,6.44
2022-12-28T23:22:03.726Z,6.44
2022-12-28T23:24:38.335Z,6.44
2022-12-28T23:27:11.232Z,6.44
2022-12-28T23:29:28.924Z,6.43
2022-12-28T23:31:45.737Z,6.43
2022-12-28T23:34:00.394Z,6.42
2022-12-28T23:36:14.325Z,6.41
2022-12-28T23:38:32.121Z,6.41
2022-12-28T23:40:45.334Z,6.40
2022-12-28T23:42:57.843Z,6.39
2022-12-28T23:45:12.156Z,6.39
2022-12-28T23:47:24.861Z,6.39
2022-12-28T23:49:38.000Z,6.39
2022-12-28T23:51:51.131Z,6.39
2022-12-28T23:54:04.018Z,6.39
2022-12-28T23:56:16.533Z,6.39
2022-12-28T23:58:28.720Z,6.39
